Lymm, United Kingdom
Current Conditions -  °F | °C
As of 6:20 PM on Saturday 25 Oct 2014 (Local Time) from EGCC Reporting Station
Broken Clouds Broken Clouds  
Wind Chill: 54°   Ceiling: 4200
Heat Index: 54°   Visibility: 6mi
Dew Point: 46°   Wind: 15mph
Humidity: 77%   Direction: 240°WSW
Pressure: 29.97"   Gusts: NA
Location:  53.38°N, 2.48°W
Report Text: EGCC 251720Z AUTO 24013KT 9999 BKN042 12/08 Q1015
Loading
Personal Weather Stations






























Interactive Weather Map New forecast layout! Learn more

10-Day Weather Forecast

Advertisements
Track Severe Weather on mobile